createdAt,value
2022-08-25T00:00:23.013Z,11.07
2022-08-25T00:03:16.857Z,10.60
2022-08-25T00:06:08.769Z,10.53
2022-08-25T00:09:00.499Z,10.40
2022-08-25T00:11:52.279Z,10.60
2022-08-25T00:14:43.855Z,10.63
2022-08-25T00:17:35.010Z,9.77
2022-08-25T00:20:28.272Z,10.30
2022-08-25T00:23:20.338Z,10.80
2022-08-25T00:26:12.681Z,10.27
2022-08-25T00:29:03.962Z,8.73
2022-08-25T00:31:55.137Z,10.63
2022-08-25T00:34:46.546Z,10.13
2022-08-25T00:37:39.349Z,11.00
2022-08-25T00:40:30.870Z,9.33
2022-08-25T00:43:23.316Z,10.00
2022-08-25T00:46:15.969Z,10.67
2022-08-25T00:49:09.274Z,10.20
2022-08-25T00:52:09.664Z,9.80
2022-08-25T00:55:07.867Z,10.70
2022-08-25T00:58:03.933Z,11.37
2022-08-25T01:00:57.791Z,10.60
2022-08-25T01:03:49.121Z,10.67
2022-08-25T01:06:42.113Z,12.10
2022-08-25T01:09:34.172Z,10.83
2022-08-25T01:12:26.857Z,11.03
2022-08-25T01:15:18.894Z,10.70
2022-08-25T01:18:11.371Z,9.97
2022-08-25T01:21:04.368Z,9.97
2022-08-25T01:23:58.251Z,10.07
2022-08-25T01:26:49.517Z,10.47
2022-08-25T01:29:40.818Z,10.07
2022-08-25T01:32:34.507Z,10.10
2022-08-25T01:35:25.601Z,10.70
2022-08-25T01:38:18.031Z,11.00
2022-08-25T01:41:09.399Z,10.17
2022-08-25T01:44:00.674Z,10.37
2022-08-25T01:46:52.326Z,10.70
2022-08-25T01:49:43.787Z,10.07
2022-08-25T01:52:37.822Z,9.93
2022-08-25T01:55:31.187Z,10.40
2022-08-25T01:58:24.536Z,10.20
2022-08-25T02:01:17.989Z,9.80
2022-08-25T02:04:09.614Z,10.00
2022-08-25T02:07:01.694Z,10.20
2022-08-25T02:09:52.852Z,10.40
2022-08-25T02:12:45.482Z,12.07
2022-08-25T02:15:40.271Z,11.43
2022-08-25T02:18:31.585Z,10.90
2022-08-25T02:21:23.041Z,10.73
2022-08-25T02:24:14.850Z,10.60
2022-08-25T02:27:06.570Z,10.43
2022-08-25T02:29:59.530Z,11.17
2022-08-25T02:32:51.149Z,10.53
2022-08-25T02:35:42.429Z,11.87
2022-08-25T02:38:36.280Z,11.37
2022-08-25T02:41:31.547Z,10.80
2022-08-25T02:44:22.913Z,10.27
2022-08-25T02:47:15.456Z,10.80
2022-08-25T02:50:06.996Z,11.10
2022-08-25T02:52:58.416Z,12.17
2022-08-25T02:55:49.630Z,12.47
2022-08-25T02:58:41.334Z,12.17
2022-08-25T03:01:33.265Z,11.43
2022-08-25T03:04:26.043Z,11.73
2022-08-25T03:07:17.757Z,12.33
2022-08-25T03:10:11.045Z,11.60
2022-08-25T03:13:02.344Z,13.40
2022-08-25T03:15:54.388Z,12.87
2022-08-25T03:18:45.826Z,11.57
2022-08-25T03:21:39.004Z,12.87
2022-08-25T03:24:29.974Z,12.63
2022-08-25T03:27:20.015Z,13.20
2022-08-25T03:30:11.891Z,12.73
2022-08-25T03:33:03.307Z,13.33
2022-08-25T03:35:55.481Z,12.80
2022-08-25T03:38:48.245Z,13.70
2022-08-25T03:41:39.613Z,13.13
2022-08-25T03:44:31.238Z,14.13
2022-08-25T03:47:24.956Z,12.70
2022-08-25T03:50:17.041Z,15.43
2022-08-25T03:53:08.563Z,14.33
2022-08-25T03:56:05.614Z,14.97
2022-08-25T03:58:57.039Z,16.73
2022-08-25T04:01:52.659Z,15.50
2022-08-25T04:04:45.858Z,18.20
2022-08-25T04:07:37.882Z,18.17
2022-08-25T04:10:29.575Z,17.80
2022-08-25T04:13:23.031Z,19.23
2022-08-25T04:16:14.938Z,19.73
2022-08-25T04:19:07.996Z,19.27
2022-08-25T04:21:59.262Z,19.93
2022-08-25T04:24:50.397Z,19.70
2022-08-25T04:27:41.826Z,20.03
2022-08-25T04:30:34.686Z,19.63
2022-08-25T04:33:26.310Z,19.97
2022-08-25T04:36:18.480Z,20.20
2022-08-25T04:39:10.113Z,19.37
2022-08-25T04:42:02.394Z,19.33
2022-08-25T04:44:54.528Z,19.50
2022-08-25T04:47:50.619Z,19.50
2022-08-25T04:50:44.350Z,19.10
2022-08-25T04:53:35.704Z,19.50
2022-08-25T04:56:27.226Z,18.93
2022-08-25T04:59:18.849Z,18.37
2022-08-25T05:02:09.958Z,20.10
2022-08-25T05:05:04.151Z,20.37
2022-08-25T05:07:55.444Z,18.73
2022-08-25T05:10:46.487Z,18.60
2022-08-25T05:13:38.241Z,19.17
2022-08-25T05:16:29.922Z,19.27
2022-08-25T05:19:24.779Z,17.97
2022-08-25T05:22:18.233Z,17.30
2022-08-25T05:25:09.745Z,17.53
2022-08-25T05:28:01.220Z,18.50
2022-08-25T05:30:52.495Z,17.53
2022-08-25T05:33:44.349Z,17.33
2022-08-25T05:36:36.030Z,18.33
2022-08-25T05:39:32.417Z,19.00
2022-08-25T05:42:23.979Z,17.80
2022-08-25T05:45:20.334Z,17.90
2022-08-25T05:48:11.936Z,18.00
2022-08-25T05:51:04.366Z,17.83
2022-08-25T05:53:55.900Z,18.50
2022-08-25T05:56:48.257Z,17.43
2022-08-25T05:59:39.637Z,17.17
2022-08-25T06:02:44.214Z,17.70
2022-08-25T06:05:35.658Z,18.23
2022-08-25T06:08:30.529Z,17.10
2022-08-25T06:11:21.976Z,18.27
2022-08-25T06:14:15.056Z,17.53
2022-08-25T06:17:06.394Z,18.53
2022-08-25T06:19:57.673Z,19.37
2022-08-25T06:22:49.327Z,18.40
2022-08-25T06:25:40.592Z,18.47
2022-08-25T06:28:31.966Z,18.93
2022-08-25T06:31:24.650Z,18.13
2022-08-25T06:34:17.676Z,19.37
2022-08-25T06:37:08.928Z,18.87
2022-08-25T06:40:00.337Z,19.87
2022-08-25T06:42:51.670Z,19.13
2022-08-25T06:45:43.379Z,18.77
2022-08-25T06:48:35.999Z,19.53
2022-08-25T06:51:27.653Z,20.27
2022-08-25T06:54:18.945Z,19.73
2022-08-25T06:57:10.610Z,18.47
2022-08-25T07:00:01.833Z,19.73
2022-08-25T07:02:53.016Z,19.57
2022-08-25T07:05:52.728Z,20.03
2022-08-25T07:08:44.125Z,20.77
2022-08-25T07:11:35.499Z,20.77
2022-08-25T07:14:26.660Z,22.83
2022-08-25T07:17:18.098Z,21.23
2022-08-25T07:20:10.338Z,21.63
2022-08-25T07:23:06.425Z,20.97
2022-08-25T07:25:57.833Z,21.50
2022-08-25T07:28:49.328Z,21.50
2022-08-25T07:31:42.334Z,21.47
2022-08-25T07:34:53.403Z,21.50
2022-08-25T07:37:49.531Z,20.73
2022-08-25T07:40:43.223Z,21.60
2022-08-25T07:43:34.472Z,20.30
2022-08-25T07:46:27.257Z,20.20
2022-08-25T07:49:23.391Z,20.90
2022-08-25T07:52:15.073Z,20.77
2022-08-25T07:55:11.022Z,20.97
2022-08-25T07:58:04.745Z,21.30
2022-08-25T08:00:56.170Z,28.43
2022-08-25T08:03:50.442Z,22.83
2022-08-25T08:06:42.508Z,19.87
2022-08-25T08:09:34.685Z,20.70
2022-08-25T08:12:26.976Z,19.40
2022-08-25T08:15:20.294Z,21.00
2022-08-25T08:18:13.522Z,20.30
2022-08-25T08:21:05.717Z,21.67
2022-08-25T08:23:59.100Z,20.27
2022-08-25T08:26:58.617Z,19.63
2022-08-25T08:29:50.626Z,19.30
2022-08-25T08:33:08.125Z,18.87
2022-08-25T08:35:59.159Z,20.17
2022-08-25T08:38:50.595Z,18.63
2022-08-25T08:42:16.870Z,17.03
2022-08-25T08:45:17.113Z,17.57
2022-08-25T08:48:26.452Z,17.73
2022-08-25T08:51:24.596Z,17.30
2022-08-25T08:54:20.405Z,15.63
2022-08-25T08:57:15.414Z,15.80
2022-08-25T09:00:08.330Z,14.00
2022-08-25T09:03:03.511Z,14.33
2022-08-25T09:05:58.492Z,14.23
2022-08-25T09:08:51.032Z,15.47
2022-08-25T09:11:48.670Z,13.10
2022-08-25T09:14:44.667Z,13.23
2022-08-25T09:17:42.710Z,12.33
2022-08-25T09:20:40.364Z,14.27
2022-08-25T09:23:35.188Z,12.83
2022-08-25T09:26:30.889Z,12.47
2022-08-25T09:29:23.824Z,11.43
2022-08-25T09:32:16.866Z,13.50
2022-08-25T09:35:17.933Z,12.97
2022-08-25T09:38:09.981Z,12.17
2022-08-25T09:41:01.983Z,12.67
2022-08-25T09:43:55.213Z,14.80
2022-08-25T09:46:56.161Z,16.10
2022-08-25T09:49:49.260Z,12.73
2022-08-25T09:52:42.341Z,11.87
2022-08-25T09:55:35.297Z,12.63
2022-08-25T09:58:26.673Z,11.90
2022-08-25T10:01:22.473Z,11.23
2022-08-25T10:04:18.978Z,11.40
2022-08-25T10:07:21.823Z,11.90
2022-08-25T10:10:17.918Z,9.87
2022-08-25T10:13:14.470Z,11.30
2022-08-25T10:16:20.301Z,11.07
2022-08-25T10:19:14.461Z,10.50
2022-08-25T10:22:07.325Z,9.73
2022-08-25T10:24:59.485Z,9.97
2022-08-25T10:27:53.748Z,10.20
2022-08-25T10:30:52.485Z,9.30
2022-08-25T10:33:50.396Z,9.32
2022-08-25T10:36:47.751Z,10.32
2022-08-25T10:39:41.127Z,9.30
2022-08-25T10:42:35.274Z,16.92
2022-08-25T10:45:45.953Z,8.82
2022-08-25T10:48:44.304Z,7.70
2022-08-25T10:51:53.637Z,8.80
2022-08-25T10:54:49.335Z,7.63
2022-08-25T10:57:45.440Z,8.10
2022-08-25T11:01:05.359Z,8.55
2022-08-25T11:04:01.695Z,8.15
2022-08-25T11:06:56.448Z,8.13
2022-08-25T11:09:51.094Z,8.68
2022-08-25T11:12:44.771Z,8.63
2022-08-25T11:15:37.667Z,7.57
2022-08-25T11:18:31.862Z,8.32
2022-08-25T11:21:25.971Z,7.60
2022-08-25T11:24:28.371Z,7.95
2022-08-25T11:27:24.357Z,7.85
2022-08-25T11:30:17.661Z,8.32
2022-08-25T11:33:13.348Z,7.80
2022-08-25T11:36:07.003Z,8.90
2022-08-25T11:39:11.768Z,7.72
2022-08-25T11:42:09.145Z,7.32
2022-08-25T11:45:07.801Z,10.55
2022-08-25T11:48:07.460Z,7.72
2022-08-25T11:51:01.207Z,7.43
2022-08-25T11:54:06.805Z,6.32
2022-08-25T11:57:03.652Z,7.35
2022-08-25T12:00:13.660Z,7.50
2022-08-25T12:03:20.076Z,7.28
2022-08-25T12:06:16.308Z,7.32
2022-08-25T12:09:19.044Z,7.35
2022-08-25T12:12:25.514Z,12.70
2022-08-25T12:15:22.876Z,8.75
2022-08-25T12:18:15.567Z,10.20
2022-08-25T12:21:11.803Z,8.73
2022-08-25T12:24:09.535Z,7.05
2022-08-25T12:27:03.446Z,6.82
2022-08-25T12:30:01.785Z,7.18
2022-08-25T12:33:07.188Z,12.40
2022-08-25T12:35:59.213Z,9.55
2022-08-25T12:38:52.379Z,9.60
2022-08-25T12:41:54.179Z,7.72
2022-08-25T12:44:47.958Z,7.93
2022-08-25T12:47:44.797Z,7.25
2022-08-25T12:50:40.279Z,7.90
2022-08-25T12:53:35.178Z,6.70
2022-08-25T12:56:30.063Z,6.97
2022-08-25T12:59:22.924Z,6.82
2022-08-25T13:02:20.986Z,7.43
2022-08-25T13:05:22.405Z,7.00
2022-08-25T13:08:46.731Z,7.20
2022-08-25T13:11:43.210Z,10.75
2022-08-25T13:14:38.346Z,11.95
2022-08-25T13:17:30.636Z,7.05
2022-08-25T13:20:29.332Z,7.40
2022-08-25T13:23:23.505Z,7.13
2022-08-25T13:26:18.118Z,7.32
2022-08-25T13:29:14.478Z,7.55
2022-08-25T13:32:12.838Z,7.15
2022-08-25T13:35:11.792Z,7.65
2022-08-25T13:38:14.916Z,6.90
2022-08-25T13:41:09.434Z,7.65
2022-08-25T13:44:02.699Z,6.80
2022-08-25T13:47:06.973Z,6.75
2022-08-25T13:50:15.082Z,6.70
2022-08-25T13:53:11.349Z,6.78
2022-08-25T13:56:05.322Z,6.93
2022-08-25T13:58:58.532Z,6.68
2022-08-25T14:01:52.107Z,7.18
2022-08-25T14:04:51.820Z,6.68
2022-08-25T14:08:09.166Z,6.72
2022-08-25T14:11:13.889Z,7.57
2022-08-25T14:14:08.534Z,23.75
2022-08-25T14:17:11.998Z,8.45
2022-08-25T14:20:21.973Z,22.52
2022-08-25T14:23:18.848Z,6.60
2022-08-25T14:26:10.418Z,7.18
2022-08-25T14:29:02.142Z,6.65
2022-08-25T14:32:00.307Z,6.90
2022-08-25T14:34:53.344Z,6.32
2022-08-25T14:37:44.507Z,6.45
2022-08-25T14:40:35.708Z,6.63
2022-08-25T14:43:31.820Z,12.23
2022-08-25T14:46:26.025Z,9.25
2022-08-25T14:49:24.641Z,6.70
2022-08-25T14:52:22.487Z,6.28
2022-08-25T14:55:27.671Z,6.93
2022-08-25T14:58:25.977Z,6.82
2022-08-25T15:01:28.573Z,7.53
2022-08-25T15:04:22.366Z,6.47
2022-08-25T15:07:27.769Z,6.28
2022-08-25T15:10:21.658Z,6.32
2022-08-25T15:13:15.817Z,6.82
2022-08-25T15:16:07.504Z,9.15
2022-08-25T15:18:58.755Z,6.60
2022-08-25T15:21:51.253Z,9.65
2022-08-25T15:24:43.282Z,6.55
2022-08-25T15:27:37.226Z,7.00
2022-08-25T15:30:28.680Z,6.80
2022-08-25T15:33:22.822Z,6.32
2022-08-25T15:36:15.480Z,6.68
2022-08-25T15:39:07.013Z,6.38
2022-08-25T15:42:00.172Z,6.38
2022-08-25T15:44:52.921Z,5.85
2022-08-25T15:47:45.068Z,6.05
2022-08-25T15:50:36.279Z,6.70
2022-08-25T15:53:27.596Z,6.18
2022-08-25T15:56:26.735Z,6.22
2022-08-25T15:59:18.524Z,6.68
2022-08-25T16:02:14.819Z,6.18
2022-08-25T16:05:07.204Z,6.60
2022-08-25T16:07:58.670Z,6.25
2022-08-25T16:10:50.116Z,6.22
2022-08-25T16:13:42.160Z,6.22
2022-08-25T16:16:34.282Z,6.20
2022-08-25T16:19:27.213Z,6.10
2022-08-25T16:22:18.596Z,6.35
2022-08-25T16:25:10.795Z,5.90
2022-08-25T16:28:01.766Z,6.38
2022-08-25T16:30:53.351Z,6.30
2022-08-25T16:33:45.308Z,5.85
2022-08-25T16:36:38.490Z,7.32
2022-08-25T16:39:29.725Z,8.07
2022-08-25T16:42:22.223Z,7.55
2022-08-25T16:45:13.882Z,6.78
2022-08-25T16:48:05.945Z,6.30
2022-08-25T16:50:57.462Z,6.63
2022-08-25T16:54:07.478Z,6.88
2022-08-25T16:56:58.730Z,6.30
2022-08-25T16:59:49.702Z,7.10
2022-08-25T17:02:41.099Z,7.13
2022-08-25T17:05:33.481Z,7.07
2022-08-25T17:08:31.008Z,6.40
2022-08-25T17:11:24.235Z,6.63
2022-08-25T17:14:17.960Z,7.13
2022-08-25T17:17:09.793Z,6.80
2022-08-25T17:20:04.895Z,6.05
2022-08-25T17:22:56.309Z,6.40
2022-08-25T17:25:48.234Z,7.80
2022-08-25T17:28:41.331Z,6.72
2022-08-25T17:31:34.710Z,6.47
2022-08-25T17:34:26.674Z,6.75
2022-08-25T17:37:18.815Z,6.57
2022-08-25T17:40:11.083Z,6.70
2022-08-25T17:43:02.585Z,7.43
2022-08-25T17:45:56.882Z,6.70
2022-08-25T17:48:48.178Z,7.03
2022-08-25T17:51:39.925Z,6.80
2022-08-25T17:54:31.565Z,6.25
2022-08-25T17:57:23.153Z,6.68
2022-08-25T18:00:15.904Z,7.35
2022-08-25T18:03:08.533Z,7.63
2022-08-25T18:06:01.209Z,7.13
2022-08-25T18:08:59.279Z,7.07
2022-08-25T18:11:52.504Z,7.90
2022-08-25T18:14:46.019Z,8.07
2022-08-25T18:17:37.118Z,7.40
2022-08-25T18:20:32.253Z,7.57
2022-08-25T18:23:23.335Z,8.57
2022-08-25T18:26:15.087Z,8.40
2022-08-25T18:29:06.480Z,7.87
2022-08-25T18:32:00.370Z,8.13
2022-08-25T18:34:52.299Z,7.70
2022-08-25T18:38:02.704Z,7.47
2022-08-25T18:40:58.222Z,8.33
2022-08-25T18:43:49.345Z,7.53
2022-08-25T18:46:42.291Z,7.97
2022-08-25T18:49:33.429Z,7.97
2022-08-25T18:52:24.748Z,8.57
2022-08-25T18:55:17.932Z,7.80
2022-08-25T18:58:09.497Z,8.70
2022-08-25T19:01:04.367Z,7.87
2022-08-25T19:03:55.989Z,8.53
2022-08-25T19:06:47.886Z,8.60
2022-08-25T19:09:43.485Z,9.60
2022-08-25T19:12:37.254Z,9.53
2022-08-25T19:15:28.557Z,9.27
2022-08-25T19:18:29.069Z,8.47
2022-08-25T19:21:23.783Z,9.17
2022-08-25T19:24:15.669Z,8.50
2022-08-25T19:27:07.337Z,9.20
2022-08-25T19:30:06.698Z,8.83
2022-08-25T19:32:58.523Z,8.43
2022-08-25T19:35:51.421Z,8.27
2022-08-25T19:38:44.187Z,7.97
2022-08-25T19:41:35.513Z,9.23
2022-08-25T19:44:27.801Z,9.60
2022-08-25T19:47:20.599Z,9.57
2022-08-25T19:50:16.735Z,8.83
2022-08-25T19:53:10.834Z,8.57
2022-08-25T19:56:04.691Z,9.10
2022-08-25T19:58:56.189Z,8.87
2022-08-25T20:01:49.594Z,9.53
2022-08-25T20:04:42.298Z,8.60
2022-08-25T20:07:34.252Z,9.53
2022-08-25T20:10:26.857Z,9.73
2022-08-25T20:13:19.490Z,9.37
2022-08-25T20:16:10.939Z,10.13
2022-08-25T20:19:02.227Z,9.83
2022-08-25T20:21:55.638Z,10.20
2022-08-25T20:24:55.706Z,9.47
2022-08-25T20:27:49.859Z,9.93
2022-08-25T20:30:44.561Z,10.17
2022-08-25T20:33:36.071Z,9.87
2022-08-25T20:36:27.641Z,9.53
2022-08-25T20:39:21.511Z,9.97
2022-08-25T20:42:13.346Z,9.80
2022-08-25T20:45:05.591Z,9.37
2022-08-25T20:47:56.604Z,10.50
2022-08-25T20:50:54.476Z,10.53
2022-08-25T20:53:49.432Z,10.83
2022-08-25T20:56:42.126Z,10.70
2022-08-25T20:59:33.757Z,10.27
2022-08-25T21:02:25.543Z,10.10
2022-08-25T21:05:18.041Z,10.60
2022-08-25T21:08:11.477Z,9.67
2022-08-25T21:11:02.797Z,9.93
2022-08-25T21:13:58.617Z,10.23
2022-08-25T21:16:50.710Z,9.93
2022-08-25T21:19:42.567Z,10.03
2022-08-25T21:22:34.616Z,11.33
2022-08-25T21:25:25.937Z,10.60
2022-08-25T21:28:17.165Z,10.33
2022-08-25T21:31:10.059Z,10.83
2022-08-25T21:34:01.728Z,10.40
2022-08-25T21:36:57.149Z,11.13
2022-08-25T21:39:48.316Z,13.23
2022-08-25T21:42:39.515Z,10.97
2022-08-25T21:45:39.689Z,11.73
2022-08-25T21:48:39.200Z,9.90
2022-08-25T21:51:31.177Z,11.00
2022-08-25T21:54:23.429Z,10.80
2022-08-25T21:57:17.969Z,11.10
2022-08-25T22:00:11.593Z,10.80
2022-08-25T22:03:02.939Z,10.63
2022-08-25T22:05:55.534Z,10.93
2022-08-25T22:08:46.947Z,10.30
2022-08-25T22:11:38.264Z,11.00
2022-08-25T22:14:29.595Z,14.73
2022-08-25T22:17:24.474Z,11.33
2022-08-25T22:20:16.776Z,11.53
2022-08-25T22:23:09.669Z,13.37
2022-08-25T22:26:11.512Z,11.90
2022-08-25T22:29:03.304Z,10.07
2022-08-25T22:31:59.355Z,10.97
2022-08-25T22:34:53.943Z,10.67
2022-08-25T22:37:45.142Z,11.20
2022-08-25T22:40:38.951Z,10.90
2022-08-25T22:43:30.484Z,10.13
2022-08-25T22:46:22.479Z,10.63
2022-08-25T22:49:13.976Z,10.17
2022-08-25T22:52:06.550Z,10.57
2022-08-25T22:54:58.384Z,11.47
2022-08-25T22:57:51.177Z,9.80
2022-08-25T23:00:46.359Z,9.87
2022-08-25T23:03:38.201Z,10.27
2022-08-25T23:06:36.294Z,9.53
2022-08-25T23:09:27.990Z,9.57
2022-08-25T23:12:19.085Z,10.23
2022-08-25T23:15:14.864Z,10.37
2022-08-25T23:18:06.188Z,9.53
2022-08-25T23:21:15.295Z,10.10
2022-08-25T23:24:06.778Z,9.87
2022-08-25T23:26:58.537Z,10.37
2022-08-25T23:29:50.385Z,9.60
2022-08-25T23:32:42.984Z,9.80
2022-08-25T23:35:36.760Z,10.53
2022-08-25T23:38:30.532Z,9.93
2022-08-25T23:41:23.278Z,10.00
2022-08-25T23:44:17.450Z,10.47
2022-08-25T23:47:08.836Z,10.30
2022-08-25T23:50:05.265Z,9.33
2022-08-25T23:52:56.452Z,9.97
2022-08-25T23:55:52.958Z,10.83
2022-08-25T23:58:45.618Z,11.17
